createdAt,value
2024-03-01T00:00:18.353Z,-0.974537
2024-03-01T00:05:18.567Z,-0.942130
2024-03-01T00:10:18.388Z,-0.881944
2024-03-01T00:15:18.076Z,-0.729167
2024-03-01T00:20:18.259Z,-0.625000
2024-03-01T00:25:18.850Z,-0.818376
2024-03-01T00:30:18.635Z,-0.854167
2024-03-01T00:35:18.572Z,-0.754630
2024-03-01T00:40:18.417Z,-1.013889
2024-03-01T00:45:19.044Z,-0.814815
2024-03-01T00:50:19.091Z,-1.127315
2024-03-01T00:55:19.704Z,-1.143519
2024-03-01T01:00:18.117Z,-1.085648
2024-03-01T01:05:18.401Z,-0.946667
2024-03-01T01:10:21.247Z,-0.652778
2024-03-01T01:15:19.026Z,-0.425926
2024-03-01T01:20:18.459Z,-0.541667
2024-03-01T01:25:18.433Z,-0.668981
2024-03-01T01:30:19.137Z,-0.842593
2024-03-01T01:35:19.020Z,-0.930556
2024-03-01T01:40:19.101Z,-1.111111
2024-03-01T01:45:18.312Z,-0.986111
2024-03-01T01:50:18.684Z,-0.932870
2024-03-01T01:55:18.241Z,-0.775463
2024-03-01T02:00:18.169Z,-0.880000
2024-03-01T02:05:18.587Z,-1.011574
2024-03-01T02:10:18.908Z,-1.030093
2024-03-01T02:15:18.533Z,-1.057870
2024-03-01T02:20:17.888Z,-0.877315
2024-03-01T02:25:18.323Z,-0.753333
2024-03-01T02:30:19.289Z,-0.715278
2024-03-01T02:35:19.092Z,-0.710648
2024-03-01T02:40:18.136Z,-0.652778
2024-03-01T02:45:17.948Z,-0.733796
2024-03-01T02:50:19.322Z,-1.108889
2024-03-01T02:55:19.068Z,-1.032407
2024-03-01T03:00:18.403Z,-1.236111
2024-03-01T03:05:18.887Z,-1.344907
2024-03-01T03:10:19.864Z,-1.168981
2024-03-01T03:15:18.130Z,-1.076389
2024-03-01T03:20:19.548Z,-0.854167
2024-03-01T03:25:19.029Z,-0.763889
2024-03-01T03:30:20.155Z,-1.101852
2024-03-01T03:35:18.882Z,-1.328704
2024-03-01T03:40:18.595Z,-1.141204
2024-03-01T03:45:20.281Z,-1.344907
2024-03-01T03:50:18.663Z,-1.421296
2024-03-01T03:55:18.440Z,-1.583333
2024-03-01T04:00:18.585Z,-1.351852
2024-03-01T04:05:18.205Z,-1.423611
2024-03-01T04:10:18.014Z,-1.349537
2024-03-01T04:15:18.421Z,-1.122685
2024-03-01T04:20:17.979Z,-1.284722
2024-03-01T04:25:17.943Z,-1.405093
2024-03-01T04:30:19.136Z,-1.306667
2024-03-01T04:35:18.796Z,-1.312500
2024-03-01T04:40:20.806Z,-1.115556
2024-03-01T04:45:18.793Z,-1.104167
2024-03-01T04:50:18.657Z,-0.840278
2024-03-01T04:55:17.932Z,-0.847222
2024-03-01T05:00:18.186Z,-1.071111
2024-03-01T05:05:18.145Z,-1.192130
2024-03-01T05:10:18.800Z,-1.453333
2024-03-01T05:15:17.937Z,-1.435185
2024-03-01T05:20:18.289Z,-1.353333
2024-03-01T05:25:19.419Z,-1.483796
2024-03-01T05:30:27.379Z,-1.407407
2024-03-01T05:35:18.314Z,-1.353333
2024-03-01T05:40:19.343Z,-1.780093
2024-03-01T05:45:18.657Z,-1.722222
2024-03-01T05:50:18.267Z,-1.423611
2024-03-01T05:55:18.176Z,-1.233333
2024-03-01T06:00:18.573Z,-1.268519
2024-03-01T06:05:18.725Z,-1.266204
2024-03-01T06:10:19.247Z,-1.416667
2024-03-01T06:15:17.954Z,-1.481481
2024-03-01T06:20:18.340Z,-1.346667
2024-03-01T06:25:19.868Z,-1.240741
2024-03-01T06:30:17.723Z,-1.138889
2024-03-01T06:35:18.306Z,-0.868889
2024-03-01T06:40:18.445Z,-1.009259
2024-03-01T06:45:18.129Z,-0.949074
2024-03-01T06:50:18.643Z,-1.006944
2024-03-01T06:55:18.559Z,-0.817130
2024-03-01T07:00:18.208Z,-0.861111
2024-03-01T07:05:18.036Z,-0.724444
2024-03-01T07:10:18.053Z,-0.560000
2024-03-01T07:15:18.045Z,-0.364444
2024-03-01T07:20:18.166Z,-0.171296
2024-03-01T07:25:18.516Z,0.013889
2024-03-01T07:30:19.049Z,0.120370
2024-03-01T07:35:18.879Z,0.245370
2024-03-01T07:40:18.956Z,0.368056
2024-03-01T07:45:18.337Z,0.408889
2024-03-01T07:50:18.718Z,0.493056
2024-03-01T07:55:18.240Z,0.537037
2024-03-01T08:00:18.678Z,0.634259
2024-03-01T08:05:18.340Z,1.250000
2024-03-01T08:10:19.002Z,1.770833
2024-03-01T08:15:17.798Z,1.988426
2024-03-01T08:20:18.377Z,2.231111
2024-03-01T08:25:18.081Z,2.534722
2024-03-01T08:30:18.257Z,2.733333
2024-03-01T08:35:18.238Z,2.877315
2024-03-01T08:40:18.296Z,3.067130
2024-03-01T08:45:17.865Z,3.087963
2024-03-01T08:50:18.519Z,3.248889
2024-03-01T08:55:18.421Z,3.648148
2024-03-01T09:00:17.959Z,4.143519
2024-03-01T09:05:18.232Z,4.486111
2024-03-01T09:10:18.465Z,4.733796
2024-03-01T09:15:18.155Z,5.305556
2024-03-01T09:20:18.242Z,5.842222
2024-03-01T09:25:18.047Z,5.971111
2024-03-01T09:30:18.581Z,6.006667
2024-03-01T09:35:18.018Z,6.226852
2024-03-01T09:40:18.224Z,6.569444
2024-03-01T09:45:18.439Z,6.884259
2024-03-01T09:50:18.511Z,7.020833
2024-03-01T09:55:18.487Z,7.111111
2024-03-01T10:00:18.174Z,7.421296
2024-03-01T10:05:20.037Z,7.743056
2024-03-01T10:10:18.390Z,8.164444
2024-03-01T10:15:18.457Z,8.474537
2024-03-01T10:20:18.740Z,8.497685
2024-03-01T10:25:18.348Z,8.481481
2024-03-01T10:30:17.940Z,8.504630
2024-03-01T10:35:18.454Z,8.648148
2024-03-01T10:40:19.680Z,8.655093
2024-03-01T10:45:17.971Z,8.675556
2024-03-01T10:50:18.370Z,8.631111
2024-03-01T10:55:18.374Z,8.717778
2024-03-01T11:00:18.262Z,8.750000
2024-03-01T11:05:18.056Z,8.756944
2024-03-01T11:10:18.085Z,8.928889
2024-03-01T11:15:18.087Z,8.997778
2024-03-01T11:20:18.067Z,9.060185
2024-03-01T11:25:18.534Z,9.134259
2024-03-01T11:30:18.282Z,9.175926
2024-03-01T11:35:18.343Z,9.293981
2024-03-01T11:40:18.481Z,9.289352
2024-03-01T11:45:19.637Z,9.192130
2024-03-01T11:50:18.172Z,9.615741
2024-03-01T11:55:18.321Z,9.703704
2024-03-01T12:00:17.867Z,9.724537
2024-03-01T12:05:18.487Z,9.754630
2024-03-01T12:10:17.995Z,9.761574
2024-03-01T12:15:18.242Z,9.857778
2024-03-01T12:20:18.018Z,9.923611
2024-03-01T12:25:18.728Z,9.909722
2024-03-01T12:30:18.562Z,10.069444
2024-03-01T12:35:18.252Z,10.050926
2024-03-01T12:40:19.251Z,9.854167
2024-03-01T12:45:18.246Z,9.854167
2024-03-01T12:50:18.535Z,9.657778
2024-03-01T12:55:19.143Z,9.773148
2024-03-01T13:00:17.853Z,9.956019
2024-03-01T13:05:18.635Z,9.960000
2024-03-01T13:10:18.102Z,10.002315
2024-03-01T13:15:19.170Z,9.973333
2024-03-01T13:20:19.661Z,10.018519
2024-03-01T13:25:18.365Z,9.916667
2024-03-01T13:30:18.203Z,10.009259
2024-03-01T13:35:17.820Z,10.141204
2024-03-01T13:40:18.991Z,10.284722
2024-03-01T13:45:17.620Z,10.152778
2024-03-01T13:50:18.459Z,9.982222
2024-03-01T13:55:18.578Z,10.032407
2024-03-01T14:00:20.062Z,10.115741
2024-03-01T14:05:18.331Z,10.099537
2024-03-01T14:10:18.563Z,9.993056
2024-03-01T14:15:20.950Z,9.942130
2024-03-01T14:20:20.543Z,9.905093
2024-03-01T14:25:20.934Z,9.956019
2024-03-01T14:30:21.044Z,9.888889
2024-03-01T14:35:21.238Z,9.886574
2024-03-01T14:40:20.442Z,9.905093
2024-03-01T14:45:20.625Z,9.995370
2024-03-01T14:50:20.885Z,9.986111
2024-03-01T14:55:21.130Z,9.738426
2024-03-01T15:00:21.282Z,9.479167
2024-03-01T15:05:20.658Z,9.398148
2024-03-01T15:10:20.660Z,9.398148
2024-03-01T15:15:21.022Z,9.108796
2024-03-01T15:20:20.635Z,8.689815
2024-03-01T15:25:20.560Z,8.500000
2024-03-01T15:30:20.095Z,8.467593
2024-03-01T15:35:21.693Z,8.044444
2024-03-01T15:40:20.126Z,7.456019
2024-03-01T15:45:20.650Z,7.046296
2024-03-01T15:50:20.533Z,7.136574
2024-03-01T15:55:20.421Z,7.277778
2024-03-01T16:00:20.432Z,7.106481
2024-03-01T16:05:19.975Z,7.053333
2024-03-01T16:10:21.081Z,7.002315
2024-03-01T16:15:20.299Z,7.084444
2024-03-01T16:20:20.567Z,7.032407
2024-03-01T16:25:20.479Z,6.806667
2024-03-01T16:30:21.149Z,6.215278
2024-03-01T16:35:20.722Z,5.879630
2024-03-01T16:40:21.027Z,5.668981
2024-03-01T16:45:20.332Z,5.655093
2024-03-01T16:50:20.623Z,5.914352
2024-03-01T16:55:20.717Z,5.940000
2024-03-01T17:00:20.069Z,6.040000
2024-03-01T17:05:20.058Z,5.791667
2024-03-01T17:10:20.129Z,5.648148
2024-03-01T17:15:20.069Z,5.745370
2024-03-01T17:20:18.018Z,5.842593
2024-03-01T17:25:17.909Z,5.893519
2024-03-01T17:30:17.932Z,5.617778
2024-03-01T17:35:18.444Z,5.729167
2024-03-01T17:40:18.129Z,5.782407
2024-03-01T17:45:18.471Z,5.870370
2024-03-01T17:50:18.023Z,5.965278
2024-03-01T17:55:18.824Z,5.726852
2024-03-01T18:05:18.668Z,5.159722
2024-03-01T18:10:18.977Z,5.293981
2024-03-01T18:15:18.046Z,4.939815
2024-03-01T18:20:21.355Z,4.555556
2024-03-01T18:25:19.018Z,4.483796
2024-03-01T18:30:18.357Z,4.576389
2024-03-01T18:35:18.771Z,4.416667
2024-03-01T18:40:17.931Z,3.923611
2024-03-01T18:45:19.225Z,3.726667
2024-03-01T18:50:18.255Z,3.902778
2024-03-01T18:55:19.832Z,3.713333
2024-03-01T19:00:18.689Z,3.652778
2024-03-01T19:05:18.512Z,3.668981
2024-03-01T19:10:18.388Z,3.641204
2024-03-01T19:15:17.976Z,3.983796
2024-03-01T19:20:17.939Z,3.975556
2024-03-01T19:25:18.993Z,3.856481
2024-03-01T19:30:18.469Z,3.932870
2024-03-01T19:35:18.330Z,4.215278
2024-03-01T19:40:18.411Z,4.060185
2024-03-01T19:45:18.033Z,3.856481
2024-03-01T19:50:18.494Z,3.979532
2024-03-01T19:55:18.337Z,3.706019
2024-03-01T20:00:18.057Z,3.898148
2024-03-01T20:05:18.181Z,4.067130
2024-03-01T20:10:18.396Z,4.053241
2024-03-01T20:15:17.881Z,4.164352
2024-03-01T20:20:18.186Z,4.159722
2024-03-01T20:25:17.807Z,4.189815
2024-03-01T20:30:19.770Z,4.289352
2024-03-01T20:35:17.765Z,4.388889
2024-03-01T20:40:17.835Z,4.516204
2024-03-01T20:45:17.999Z,4.673611
2024-03-01T20:50:18.047Z,4.794444
2024-03-01T20:55:19.351Z,4.840278
2024-03-01T21:00:17.726Z,4.842593
2024-03-01T21:05:18.240Z,4.875556
2024-03-01T21:10:20.299Z,4.898148
2024-03-01T21:15:20.549Z,4.935185
2024-03-01T21:20:20.918Z,4.969907
2024-03-01T21:25:20.376Z,5.023148
2024-03-01T21:30:19.912Z,5.069444
2024-03-01T21:35:20.469Z,5.155093
2024-03-01T21:40:20.981Z,5.206019
2024-03-01T21:45:20.231Z,5.226852
2024-03-01T21:50:20.559Z,5.201389
2024-03-01T21:55:20.544Z,5.180556
2024-03-01T22:00:20.307Z,5.222222
2024-03-01T22:05:20.433Z,5.226667
2024-03-01T22:10:20.137Z,5.219907
2024-03-01T22:15:20.192Z,5.195556
2024-03-01T22:20:19.992Z,5.180000
2024-03-01T22:25:20.482Z,5.201389
2024-03-01T22:30:20.357Z,5.254630
2024-03-01T22:35:20.405Z,5.266204
2024-03-01T22:40:20.330Z,5.224537
2024-03-01T22:45:20.477Z,5.185185
2024-03-01T22:50:20.338Z,5.200000
2024-03-01T22:55:20.075Z,5.244444
2024-03-01T23:00:21.145Z,5.206019
2024-03-01T23:05:20.762Z,5.166667
2024-03-01T23:10:20.392Z,5.178241
2024-03-01T23:15:20.870Z,5.175926
2024-03-01T23:20:20.800Z,5.180000
2024-03-01T23:25:20.745Z,5.171296
2024-03-01T23:30:20.403Z,5.192130
2024-03-01T23:35:19.923Z,5.264444
2024-03-01T23:40:20.108Z,5.398148
2024-03-01T23:45:20.483Z,5.460000
2024-03-01T23:50:20.655Z,5.568889
2024-03-01T23:55:20.321Z,5.539352
